Terminal Aerodrome Forecast
Issued by NWS

Home | Current Version | Previous Version | Text Only | Print | Product List | Glossary On
Versions: 1 2 3 4 5 6 7 8 9 10 11 12 13 14 15 16 17 18 19
000
FTUS44 KBMX 171700
TAFTOI
TAF
KTOI 171720Z 1718/1818 09010KT P6SM SCT060
     FM180000 07007KT P6SM OVC040
     FM180400 06006KT P6SM OVC025
     FM180800 06009KT 4SM -RA OVC007
     FM181300 05012G22KT 4SM RA BR OVC007=

USA.gov is the U.S. government's official web portal to all federal, state and local government web resources and services.